sensor_id;sensor_type;location;lat;lon;timestamp;P1;durP1;ratioP1;P2;durP2;ratioP2
4452;SDS011;2239;48.152;11.584;2023-11-18T00:00:19;8.68;;;3.42;;
4452;SDS011;2239;48.152;11.584;2023-11-18T00:02:45;6.78;;;3.00;;
4452;SDS011;2239;48.152;11.584;2023-11-18T00:05:11;8.40;;;3.10;;
4452;SDS011;2239;48.152;11.584;2023-11-18T00:07:37;5.75;;;2.97;;
4452;SDS011;2239;48.152;11.584;2023-11-18T00:10:03;6.63;;;2.53;;
4452;SDS011;2239;48.152;11.584;2023-11-18T00:12:29;7.43;;;2.95;;
4452;SDS011;2239;48.152;11.584;2023-11-18T00:14:55;10.00;;;3.10;;
4452;SDS011;2239;48.152;11.584;2023-11-18T00:17:21;7.30;;;3.27;;
4452;SDS011;2239;48.152;11.584;2023-11-18T00:19:47;6.97;;;3.53;;
4452;SDS011;2239;48.152;11.584;2023-11-18T00:22:13;11.20;;;3.87;;
4452;SDS011;2239;48.152;11.584;2023-11-18T00:24:38;8.63;;;3.23;;
4452;SDS011;2239;48.152;11.584;2023-11-18T00:27:04;10.17;;;3.27;;
4452;SDS011;2239;48.152;11.584;2023-11-18T00:29:33;6.35;;;3.20;;
4452;SDS011;2239;48.152;11.584;2023-11-18T00:31:58;6.80;;;2.70;;
4452;SDS011;2239;48.152;11.584;2023-11-18T00:34:25;4.55;;;2.15;;
4452;SDS011;2239;48.152;11.584;2023-11-18T00:36:50;7.80;;;2.83;;
4452;SDS011;2239;48.152;11.584;2023-11-18T00:39:17;6.30;;;2.88;;
4452;SDS011;2239;48.152;11.584;2023-11-18T00:41:42;6.03;;;2.50;;
4452;SDS011;2239;48.152;11.584;2023-11-18T00:44:08;4.60;;;2.00;;
4452;SDS011;2239;48.152;11.584;2023-11-18T00:46:34;4.03;;;2.08;;
4452;SDS011;2239;48.152;11.584;2023-11-18T00:49:03;4.20;;;1.90;;
4452;SDS011;2239;48.152;11.584;2023-11-18T00:51:30;4.10;;;2.03;;
4452;SDS011;2239;48.152;11.584;2023-11-18T00:53:55;4.03;;;2.03;;
4452;SDS011;2239;48.152;11.584;2023-11-18T00:56:21;3.60;;;1.80;;
4452;SDS011;2239;48.152;11.584;2023-11-18T00:58:50;5.00;;;1.93;;
4452;SDS011;2239;48.152;11.584;2023-11-18T01:01:17;5.45;;;1.92;;
4452;SDS011;2239;48.152;11.584;2023-11-18T01:03:46;4.80;;;2.33;;
4452;SDS011;2239;48.152;11.584;2023-11-18T01:06:12;3.75;;;1.98;;
4452;SDS011;2239;48.152;11.584;2023-11-18T01:08:40;3.38;;;1.50;;
4452;SDS011;2239;48.152;11.584;2023-11-18T01:11:09;3.42;;;1.48;;
4452;SDS011;2239;48.152;11.584;2023-11-18T01:13:34;4.77;;;1.83;;
4452;SDS011;2239;48.152;11.584;2023-11-18T01:16:00;1.83;;;1.37;;
4452;SDS011;2239;48.152;11.584;2023-11-18T01:18:27;5.05;;;1.60;;
4452;SDS011;2239;48.152;11.584;2023-11-18T01:20:52;3.13;;;1.57;;
4452;SDS011;2239;48.152;11.584;2023-11-18T01:23:18;3.97;;;1.90;;
4452;SDS011;2239;48.152;11.584;2023-11-18T01:25:44;2.60;;;1.50;;
4452;SDS011;2239;48.152;11.584;2023-11-18T01:28:09;3.07;;;1.50;;
4452;SDS011;2239;48.152;11.584;2023-11-18T01:30:35;3.60;;;1.60;;
4452;SDS011;2239;48.152;11.584;2023-11-18T01:33:01;2.15;;;1.20;;
4452;SDS011;2239;48.152;11.584;2023-11-18T01:35:27;2.90;;;1.50;;
4452;SDS011;2239;48.152;11.584;2023-11-18T01:37:53;5.20;;;1.53;;
4452;SDS011;2239;48.152;11.584;2023-11-18T01:40:22;1.90;;;1.60;;
4452;SDS011;2239;48.152;11.584;2023-11-18T01:42:48;4.35;;;1.33;;
4452;SDS011;2239;48.152;11.584;2023-11-18T01:45:14;2.13;;;1.40;;
4452;SDS011;2239;48.152;11.584;2023-11-18T01:47:41;2.78;;;1.30;;
4452;SDS011;2239;48.152;11.584;2023-11-18T01:50:08;2.63;;;1.60;;
4452;SDS011;2239;48.152;11.584;2023-11-18T01:52:37;2.60;;;1.67;;
4452;SDS011;2239;48.152;11.584;2023-11-18T01:55:03;2.30;;;1.50;;
4452;SDS011;2239;48.152;11.584;2023-11-18T01:57:31;2.05;;;1.20;;
4452;SDS011;2239;48.152;11.584;2023-11-18T01:59:58;2.90;;;1.70;;
4452;SDS011;2239;48.152;11.584;2023-11-18T02:02:25;1.85;;;1.35;;
4452;SDS011;2239;48.152;11.584;2023-11-18T02:04:51;1.52;;;1.23;;
4452;SDS011;2239;48.152;11.584;2023-11-18T02:07:17;2.17;;;1.30;;
4452;SDS011;2239;48.152;11.584;2023-11-18T02:09:43;2.80;;;1.67;;
4452;SDS011;2239;48.152;11.584;2023-11-18T02:12:29;3.30;;;1.80;;
4452;SDS011;2239;48.152;11.584;2023-11-18T02:15:13;3.60;;;1.55;;
4452;SDS011;2239;48.152;11.584;2023-11-18T02:17:41;2.30;;;1.30;;
4452;SDS011;2239;48.152;11.584;2023-11-18T02:20:08;4.55;;;1.73;;
4452;SDS011;2239;48.152;11.584;2023-11-18T02:22:43;2.72;;;1.42;;
4452;SDS011;2239;48.152;11.584;2023-11-18T02:25:13;2.17;;;1.40;;
4452;SDS011;2239;48.152;11.584;2023-11-18T02:27:41;3.45;;;1.23;;
4452;SDS011;2239;48.152;11.584;2023-11-18T02:30:08;2.53;;;1.50;;
4452;SDS011;2239;48.152;11.584;2023-11-18T02:35:25;2.15;;;1.23;;
4452;SDS011;2239;48.152;11.584;2023-11-18T02:37:55;2.50;;;1.70;;
4452;SDS011;2239;48.152;11.584;2023-11-18T02:40:32;3.97;;;1.83;;
4452;SDS011;2239;48.152;11.584;2023-11-18T02:43:05;3.15;;;2.00;;
4452;SDS011;2239;48.152;11.584;2023-11-18T02:45:32;3.40;;;1.57;;
4452;SDS011;2239;48.152;11.584;2023-11-18T02:48:00;3.58;;;1.60;;
4452;SDS011;2239;48.152;11.584;2023-11-18T02:50:27;4.37;;;1.60;;
4452;SDS011;2239;48.152;11.584;2023-11-18T02:52:53;2.97;;;1.20;;
4452;SDS011;2239;48.152;11.584;2023-11-18T02:55:19;3.55;;;1.75;;
4452;SDS011;2239;48.152;11.584;2023-11-18T02:57:46;2.58;;;1.60;;
4452;SDS011;2239;48.152;11.584;2023-11-18T03:00:12;2.07;;;1.40;;
4452;SDS011;2239;48.152;11.584;2023-11-18T03:02:43;4.80;;;1.77;;
4452;SDS011;2239;48.152;11.584;2023-11-18T03:05:11;2.85;;;1.33;;
4452;SDS011;2239;48.152;11.584;2023-11-18T03:07:43;2.30;;;1.67;;
4452;SDS011;2239;48.152;11.584;2023-11-18T03:10:12;2.92;;;1.65;;
4452;SDS011;2239;48.152;11.584;2023-11-18T03:12:49;2.03;;;1.30;;
4452;SDS011;2239;48.152;11.584;2023-11-18T03:15:18;5.07;;;1.45;;
4452;SDS011;2239;48.152;11.584;2023-11-18T03:17:48;1.95;;;1.15;;
4452;SDS011;2239;48.152;11.584;2023-11-18T03:20:22;2.88;;;1.45;;
4452;SDS011;2239;48.152;11.584;2023-11-18T03:22:49;3.10;;;1.40;;
4452;SDS011;2239;48.152;11.584;2023-11-18T03:25:16;3.20;;;1.27;;
4452;SDS011;2239;48.152;11.584;2023-11-18T03:27:43;2.92;;;1.42;;
4452;SDS011;2239;48.152;11.584;2023-11-18T03:30:09;3.65;;;1.90;;
4452;SDS011;2239;48.152;11.584;2023-11-18T03:32:35;3.90;;;1.87;;
4452;SDS011;2239;48.152;11.584;2023-11-18T03:35:02;3.75;;;1.50;;
4452;SDS011;2239;48.152;11.584;2023-11-18T03:37:32;3.38;;;1.73;;
4452;SDS011;2239;48.152;11.584;2023-11-18T03:39:57;2.60;;;1.67;;
4452;SDS011;2239;48.152;11.584;2023-11-18T03:42:23;4.70;;;1.80;;
4452;SDS011;2239;48.152;11.584;2023-11-18T03:44:48;3.10;;;1.53;;
4452;SDS011;2239;48.152;11.584;2023-11-18T03:47:14;4.47;;;2.20;;
4452;SDS011;2239;48.152;11.584;2023-11-18T03:49:40;3.53;;;2.10;;
4452;SDS011;2239;48.152;11.584;2023-11-18T03:52:06;1.92;;;1.50;;
4452;SDS011;2239;48.152;11.584;2023-11-18T03:54:31;3.50;;;1.33;;
4452;SDS011;2239;48.152;11.584;2023-11-18T03:56:57;4.67;;;1.77;;
4452;SDS011;2239;48.152;11.584;2023-11-18T03:59:23;6.03;;;1.97;;
4452;SDS011;2239;48.152;11.584;2023-11-18T04:01:48;3.10;;;1.60;;
4452;SDS011;2239;48.152;11.584;2023-11-18T04:04:15;2.83;;;1.50;;
4452;SDS011;2239;48.152;11.584;2023-11-18T04:06:41;3.30;;;1.85;;
4452;SDS011;2239;48.152;11.584;2023-11-18T04:09:07;3.77;;;1.80;;
4452;SDS011;2239;48.152;11.584;2023-11-18T04:11:34;3.20;;;1.40;;
4452;SDS011;2239;48.152;11.584;2023-11-18T04:14:00;4.07;;;2.00;;
4452;SDS011;2239;48.152;11.584;2023-11-18T04:16:26;3.57;;;2.00;;
4452;SDS011;2239;48.152;11.584;2023-11-18T04:18:51;3.37;;;1.67;;
4452;SDS011;2239;48.152;11.584;2023-11-18T04:21:17;4.27;;;2.07;;
4452;SDS011;2239;48.152;11.584;2023-11-18T04:23:43;3.17;;;1.40;;
4452;SDS011;2239;48.152;11.584;2023-11-18T04:26:11;3.80;;;1.80;;
4452;SDS011;2239;48.152;11.584;2023-11-18T04:28:37;3.33;;;1.90;;
4452;SDS011;2239;48.152;11.584;2023-11-18T04:31:03;1.93;;;1.23;;
4452;SDS011;2239;48.152;11.584;2023-11-18T04:33:30;5.05;;;1.95;;
4452;SDS011;2239;48.152;11.584;2023-11-18T04:35:56;3.60;;;2.23;;
4452;SDS011;2239;48.152;11.584;2023-11-18T04:38:25;8.50;;;2.38;;
4452;SDS011;2239;48.152;11.584;2023-11-18T04:40:51;3.55;;;2.00;;
4452;SDS011;2239;48.152;11.584;2023-11-18T04:43:18;5.20;;;2.05;;
4452;SDS011;2239;48.152;11.584;2023-11-18T04:45:45;4.30;;;2.22;;
4452;SDS011;2239;48.152;11.584;2023-11-18T04:48:11;3.80;;;1.90;;
4452;SDS011;2239;48.152;11.584;2023-11-18T04:50:38;6.70;;;2.72;;
4452;SDS011;2239;48.152;11.584;2023-11-18T04:53:04;3.33;;;1.60;;
4452;SDS011;2239;48.152;11.584;2023-11-18T04:55:33;4.38;;;2.05;;
4452;SDS011;2239;48.152;11.584;2023-11-18T04:57:59;4.55;;;1.55;;
4452;SDS011;2239;48.152;11.584;2023-11-18T05:00:25;4.73;;;2.10;;
4452;SDS011;2239;48.152;11.584;2023-11-18T05:02:52;3.33;;;1.80;;
4452;SDS011;2239;48.152;11.584;2023-11-18T05:05:19;7.50;;;2.20;;
4452;SDS011;2239;48.152;11.584;2023-11-18T05:07:44;3.67;;;2.00;;
4452;SDS011;2239;48.152;11.584;2023-11-18T05:10:10;3.97;;;2.23;;
4452;SDS011;2239;48.152;11.584;2023-11-18T05:12:39;4.33;;;2.40;;
4452;SDS011;2239;48.152;11.584;2023-11-18T05:15:05;7.40;;;3.00;;
4452;SDS011;2239;48.152;11.584;2023-11-18T05:17:33;7.18;;;2.20;;
4452;SDS011;2239;48.152;11.584;2023-11-18T05:20:01;4.97;;;2.33;;
4452;SDS011;2239;48.152;11.584;2023-11-18T05:22:30;4.70;;;2.15;;
4452;SDS011;2239;48.152;11.584;2023-11-18T05:24:56;6.10;;;2.50;;
4452;SDS011;2239;48.152;11.584;2023-11-18T05:27:22;4.32;;;2.13;;
4452;SDS011;2239;48.152;11.584;2023-11-18T05:29:48;3.50;;;1.83;;
4452;SDS011;2239;48.152;11.584;2023-11-18T05:32:19;7.68;;;2.83;;
4452;SDS011;2239;48.152;11.584;2023-11-18T05:34:47;4.15;;;2.25;;
4452;SDS011;2239;48.152;11.584;2023-11-18T05:37:14;4.15;;;2.00;;
4452;SDS011;2239;48.152;11.584;2023-11-18T05:39:43;5.78;;;2.50;;
4452;SDS011;2239;48.152;11.584;2023-11-18T05:42:10;6.05;;;2.70;;
4452;SDS011;2239;48.152;11.584;2023-11-18T05:44:36;5.50;;;2.20;;
4452;SDS011;2239;48.152;11.584;2023-11-18T05:47:04;6.35;;;2.60;;
4452;SDS011;2239;48.152;11.584;2023-11-18T05:49:33;4.18;;;1.80;;
4452;SDS011;2239;48.152;11.584;2023-11-18T05:51:59;5.28;;;2.50;;
4452;SDS011;2239;48.152;11.584;2023-11-18T05:54:25;6.43;;;2.00;;
4452;SDS011;2239;48.152;11.584;2023-11-18T05:56:51;4.40;;;2.10;;
4452;SDS011;2239;48.152;11.584;2023-11-18T05:59:18;6.47;;;2.35;;
4452;SDS011;2239;48.152;11.584;2023-11-18T06:01:44;4.77;;;2.03;;
4452;SDS011;2239;48.152;11.584;2023-11-18T06:04:09;6.27;;;2.20;;
4452;SDS011;2239;48.152;11.584;2023-11-18T06:06:35;7.43;;;2.73;;
4452;SDS011;2239;48.152;11.584;2023-11-18T06:09:02;6.25;;;2.70;;
4452;SDS011;2239;48.152;11.584;2023-11-18T06:11:33;5.13;;;2.13;;
4452;SDS011;2239;48.152;11.584;2023-11-18T06:14:00;5.75;;;2.80;;
4452;SDS011;2239;48.152;11.584;2023-11-18T06:16:26;4.45;;;2.05;;
4452;SDS011;2239;48.152;11.584;2023-11-18T06:18:56;6.13;;;2.17;;
4452;SDS011;2239;48.152;11.584;2023-11-18T06:21:24;4.85;;;2.13;;
4452;SDS011;2239;48.152;11.584;2023-11-18T06:23:53;5.28;;;2.22;;
4452;SDS011;2239;48.152;11.584;2023-11-18T06:26:19;3.63;;;1.60;;
4452;SDS011;2239;48.152;11.584;2023-11-18T06:28:45;4.53;;;2.10;;
4452;SDS011;2239;48.152;11.584;2023-11-18T06:31:12;4.80;;;1.80;;
4452;SDS011;2239;48.152;11.584;2023-11-18T06:33:42;5.93;;;2.15;;
4452;SDS011;2239;48.152;11.584;2023-11-18T06:38:41;4.15;;;2.08;;
4452;SDS011;2239;48.152;11.584;2023-11-18T06:41:11;5.35;;;1.80;;
4452;SDS011;2239;48.152;11.584;2023-11-18T06:43:38;6.32;;;2.75;;
4452;SDS011;2239;48.152;11.584;2023-11-18T06:46:21;5.18;;;2.30;;
4452;SDS011;2239;48.152;11.584;2023-11-18T06:48:51;3.55;;;1.88;;
4452;SDS011;2239;48.152;11.584;2023-11-18T06:51:22;2.78;;;1.75;;
4452;SDS011;2239;48.152;11.584;2023-11-18T06:53:49;4.85;;;1.95;;
4452;SDS011;2239;48.152;11.584;2023-11-18T06:56:15;4.55;;;2.10;;
4452;SDS011;2239;48.152;11.584;2023-11-18T06:58:41;6.07;;;1.80;;
4452;SDS011;2239;48.152;11.584;2023-11-18T07:01:07;2.67;;;1.83;;
4452;SDS011;2239;48.152;11.584;2023-11-18T07:03:34;6.60;;;2.00;;
4452;SDS011;2239;48.152;11.584;2023-11-18T07:06:01;4.68;;;1.90;;
4452;SDS011;2239;48.152;11.584;2023-11-18T07:08:27;3.53;;;2.00;;
4452;SDS011;2239;48.152;11.584;2023-11-18T07:10:53;4.50;;;1.93;;
4452;SDS011;2239;48.152;11.584;2023-11-18T07:13:18;3.87;;;2.40;;
4452;SDS011;2239;48.152;11.584;2023-11-18T07:15:48;5.05;;;2.00;;
4452;SDS011;2239;48.152;11.584;2023-11-18T07:18:14;4.30;;;2.05;;
4452;SDS011;2239;48.152;11.584;2023-11-18T07:20:39;4.07;;;2.10;;
4452;SDS011;2239;48.152;11.584;2023-11-18T07:23:05;5.93;;;1.97;;
4452;SDS011;2239;48.152;11.584;2023-11-18T07:25:33;4.72;;;1.80;;
4452;SDS011;2239;48.152;11.584;2023-11-18T07:27:59;5.50;;;2.23;;
4452;SDS011;2239;48.152;11.584;2023-11-18T07:30:24;7.60;;;2.27;;
4452;SDS011;2239;48.152;11.584;2023-11-18T07:32:50;4.60;;;1.67;;
4452;SDS011;2239;48.152;11.584;2023-11-18T07:35:16;5.53;;;1.60;;
4452;SDS011;2239;48.152;11.584;2023-11-18T07:37:42;2.20;;;1.45;;
4452;SDS011;2239;48.152;11.584;2023-11-18T07:40:08;5.70;;;2.30;;
4452;SDS011;2239;48.152;11.584;2023-11-18T07:42:36;5.30;;;2.20;;
4452;SDS011;2239;48.152;11.584;2023-11-18T07:45:03;3.60;;;1.85;;
4452;SDS011;2239;48.152;11.584;2023-11-18T07:47:30;6.05;;;2.33;;
4452;SDS011;2239;48.152;11.584;2023-11-18T07:49:59;4.45;;;2.10;;
4452;SDS011;2239;48.152;11.584;2023-11-18T07:52:26;4.60;;;2.33;;
4452;SDS011;2239;48.152;11.584;2023-11-18T07:54:53;4.55;;;2.30;;
4452;SDS011;2239;48.152;11.584;2023-11-18T07:57:19;7.22;;;2.40;;
4452;SDS011;2239;48.152;11.584;2023-11-18T07:59:44;4.53;;;1.77;;
4452;SDS011;2239;48.152;11.584;2023-11-18T08:02:10;3.57;;;1.90;;
4452;SDS011;2239;48.152;11.584;2023-11-18T08:04:36;5.87;;;2.20;;
4452;SDS011;2239;48.152;11.584;2023-11-18T08:07:01;4.03;;;2.10;;
4452;SDS011;2239;48.152;11.584;2023-11-18T08:09:29;3.67;;;1.98;;
4452;SDS011;2239;48.152;11.584;2023-11-18T08:11:56;3.78;;;2.28;;
4452;SDS011;2239;48.152;11.584;2023-11-18T08:14:22;7.20;;;2.50;;
4452;SDS011;2239;48.152;11.584;2023-11-18T08:16:47;4.73;;;2.33;;
4452;SDS011;2239;48.152;11.584;2023-11-18T08:19:14;3.10;;;1.90;;
4452;SDS011;2239;48.152;11.584;2023-11-18T08:21:40;5.30;;;1.97;;
4452;SDS011;2239;48.152;11.584;2023-11-18T08:24:06;4.40;;;1.80;;
4452;SDS011;2239;48.152;11.584;2023-11-18T08:26:33;3.67;;;2.20;;
4452;SDS011;2239;48.152;11.584;2023-11-18T08:29:01;2.57;;;1.40;;
4452;SDS011;2239;48.152;11.584;2023-11-18T08:31:27;3.63;;;2.20;;
4452;SDS011;2239;48.152;11.584;2023-11-18T08:33:53;2.70;;;1.73;;
4452;SDS011;2239;48.152;11.584;2023-11-18T08:36:19;3.60;;;2.00;;
4452;SDS011;2239;48.152;11.584;2023-11-18T08:38:47;3.65;;;1.92;;
4452;SDS011;2239;48.152;11.584;2023-11-18T08:41:13;3.00;;;1.37;;
4452;SDS011;2239;48.152;11.584;2023-11-18T08:43:38;5.67;;;1.90;;
4452;SDS011;2239;48.152;11.584;2023-11-18T08:46:06;3.87;;;1.87;;
4452;SDS011;2239;48.152;11.584;2023-11-18T08:48:32;4.07;;;2.10;;
4452;SDS011;2239;48.152;11.584;2023-11-18T08:50:59;4.83;;;2.20;;
4452;SDS011;2239;48.152;11.584;2023-11-18T08:53:26;3.77;;;2.00;;
4452;SDS011;2239;48.152;11.584;2023-11-18T08:55:52;4.33;;;2.23;;
4452;SDS011;2239;48.152;11.584;2023-11-18T08:58:22;5.23;;;2.13;;
4452;SDS011;2239;48.152;11.584;2023-11-18T09:00:52;4.80;;;1.97;;
4452;SDS011;2239;48.152;11.584;2023-11-18T09:03:20;4.70;;;1.88;;
4452;SDS011;2239;48.152;11.584;2023-11-18T09:05:51;6.30;;;1.87;;
4452;SDS011;2239;48.152;11.584;2023-11-18T09:10:54;2.70;;;1.83;;
4452;SDS011;2239;48.152;11.584;2023-11-18T09:13:21;4.17;;;1.90;;
4452;SDS011;2239;48.152;11.584;2023-11-18T09:15:50;2.93;;;1.80;;
4452;SDS011;2239;48.152;11.584;2023-11-18T09:18:16;2.20;;;1.50;;
4452;SDS011;2239;48.152;11.584;2023-11-18T09:20:43;2.77;;;1.70;;
4452;SDS011;2239;48.152;11.584;2023-11-18T09:23:09;3.07;;;1.37;;
4452;SDS011;2239;48.152;11.584;2023-11-18T09:25:34;3.67;;;1.70;;
4452;SDS011;2239;48.152;11.584;2023-11-18T09:28:01;4.00;;;2.03;;
4452;SDS011;2239;48.152;11.584;2023-11-18T09:30:28;3.30;;;1.80;;
4452;SDS011;2239;48.152;11.584;2023-11-18T09:32:54;2.97;;;1.70;;
4452;SDS011;2239;48.152;11.584;2023-11-18T09:35:20;4.17;;;1.37;;
4452;SDS011;2239;48.152;11.584;2023-11-18T09:37:46;3.17;;;1.60;;
4452;SDS011;2239;48.152;11.584;2023-11-18T09:40:21;3.00;;;1.63;;
4452;SDS011;2239;48.152;11.584;2023-11-18T09:42:54;2.60;;;1.63;;
4452;SDS011;2239;48.152;11.584;2023-11-18T09:45:23;3.20;;;1.57;;
4452;SDS011;2239;48.152;11.584;2023-11-18T09:47:48;3.80;;;1.90;;
4452;SDS011;2239;48.152;11.584;2023-11-18T09:50:19;2.03;;;1.20;;
4452;SDS011;2239;48.152;11.584;2023-11-18T09:52:53;3.30;;;1.67;;
4452;SDS011;2239;48.152;11.584;2023-11-18T09:55:33;3.10;;;1.53;;
4452;SDS011;2239;48.152;11.584;2023-11-18T09:58:09;2.57;;;1.50;;
4452;SDS011;2239;48.152;11.584;2023-11-18T10:00:42;2.30;;;1.30;;
4452;SDS011;2239;48.152;11.584;2023-11-18T10:03:09;2.07;;;1.40;;
4452;SDS011;2239;48.152;11.584;2023-11-18T10:05:40;3.57;;;1.60;;
4452;SDS011;2239;48.152;11.584;2023-11-18T10:08:07;2.30;;;1.63;;
4452;SDS011;2239;48.152;11.584;2023-11-18T10:10:33;2.20;;;1.20;;
4452;SDS011;2239;48.152;11.584;2023-11-18T10:13:02;2.20;;;1.57;;
4452;SDS011;2239;48.152;11.584;2023-11-18T10:15:33;3.07;;;1.63;;
4452;SDS011;2239;48.152;11.584;2023-11-18T10:17:59;4.30;;;1.77;;
4452;SDS011;2239;48.152;11.584;2023-11-18T10:23:10;7.00;;;1.40;;
4452;SDS011;2239;48.152;11.584;2023-11-18T10:25:51;2.00;;;1.43;;
4452;SDS011;2239;48.152;11.584;2023-11-18T10:28:26;3.10;;;1.70;;
4452;SDS011;2239;48.152;11.584;2023-11-18T10:31:02;2.50;;;1.23;;
4452;SDS011;2239;48.152;11.584;2023-11-18T10:33:47;4.60;;;1.30;;
4452;SDS011;2239;48.152;11.584;2023-11-18T10:36:20;2.60;;;1.57;;
4452;SDS011;2239;48.152;11.584;2023-11-18T10:38:48;2.17;;;1.50;;
4452;SDS011;2239;48.152;11.584;2023-11-18T10:41:15;2.97;;;1.57;;
4452;SDS011;2239;48.152;11.584;2023-11-18T10:43:44;2.70;;;1.23;;
4452;SDS011;2239;48.152;11.584;2023-11-18T10:46:14;1.23;;;1.13;;
4452;SDS011;2239;48.152;11.584;2023-11-18T10:48:44;1.43;;;1.33;;
4452;SDS011;2239;48.152;11.584;2023-11-18T10:51:15;3.80;;;1.27;;
4452;SDS011;2239;48.152;11.584;2023-11-18T10:53:48;1.43;;;1.30;;
4452;SDS011;2239;48.152;11.584;2023-11-18T10:56:23;2.47;;;1.30;;
4452;SDS011;2239;48.152;11.584;2023-11-18T10:58:52;1.93;;;1.00;;
4452;SDS011;2239;48.152;11.584;2023-11-18T11:01:28;2.07;;;1.13;;
4452;SDS011;2239;48.152;11.584;2023-11-18T11:03:54;2.17;;;1.23;;
4452;SDS011;2239;48.152;11.584;2023-11-18T11:06:20;2.50;;;1.10;;
4452;SDS011;2239;48.152;11.584;2023-11-18T11:08:48;2.70;;;1.13;;
4452;SDS011;2239;48.152;11.584;2023-11-18T11:11:17;2.47;;;1.23;;
4452;SDS011;2239;48.152;11.584;2023-11-18T11:13:47;2.57;;;1.50;;
4452;SDS011;2239;48.152;11.584;2023-11-18T11:16:17;1.90;;;1.10;;
4452;SDS011;2239;48.152;11.584;2023-11-18T11:18:46;1.77;;;1.27;;
4452;SDS011;2239;48.152;11.584;2023-11-18T11:21:17;3.13;;;1.20;;
4452;SDS011;2239;48.152;11.584;2023-11-18T11:26:49;4.53;;;1.30;;
4452;SDS011;2239;48.152;11.584;2023-11-18T11:32:12;1.17;;;0.90;;
4452;SDS011;2239;48.152;11.584;2023-11-18T11:35:03;1.93;;;1.50;;
4452;SDS011;2239;48.152;11.584;2023-11-18T11:37:41;2.03;;;1.23;;
4452;SDS011;2239;48.152;11.584;2023-11-18T11:40:10;1.10;;;0.90;;
4452;SDS011;2239;48.152;11.584;2023-11-18T11:42:39;5.90;;;1.17;;
4452;SDS011;2239;48.152;11.584;2023-11-18T11:45:07;1.90;;;1.00;;
4452;SDS011;2239;48.152;11.584;2023-11-18T11:47:45;1.10;;;1.00;;
4452;SDS011;2239;48.152;11.584;2023-11-18T11:50:22;1.20;;;0.90;;
4452;SDS011;2239;48.152;11.584;2023-11-18T11:52:59;1.33;;;0.93;;
4452;SDS011;2239;48.152;11.584;2023-11-18T12:01:02;1.47;;;0.80;;
4452;SDS011;2239;48.152;11.584;2023-11-18T12:03:43;2.97;;;1.17;;
4452;SDS011;2239;48.152;11.584;2023-11-18T12:06:12;1.63;;;1.10;;
4452;SDS011;2239;48.152;11.584;2023-11-18T12:08:46;4.40;;;1.40;;
4452;SDS011;2239;48.152;11.584;2023-11-18T12:11:13;2.07;;;1.33;;
4452;SDS011;2239;48.152;11.584;2023-11-18T12:13:40;1.60;;;1.00;;
4452;SDS011;2239;48.152;11.584;2023-11-18T12:19:29;1.63;;;0.90;;
4452;SDS011;2239;48.152;11.584;2023-11-18T12:21:57;1.50;;;1.13;;
4452;SDS011;2239;48.152;11.584;2023-11-18T12:24:25;1.77;;;1.03;;
4452;SDS011;2239;48.152;11.584;2023-11-18T12:26:51;1.03;;;0.80;;
4452;SDS011;2239;48.152;11.584;2023-11-18T12:29:31;2.17;;;1.23;;
4452;SDS011;2239;48.152;11.584;2023-11-18T12:32:06;0.90;;;0.83;;
4452;SDS011;2239;48.152;11.584;2023-11-18T12:34:50;0.93;;;0.70;;
4452;SDS011;2239;48.152;11.584;2023-11-18T12:37:22;1.00;;;0.70;;
4452;SDS011;2239;48.152;11.584;2023-11-18T12:40:23;0.70;;;0.70;;
4452;SDS011;2239;48.152;11.584;2023-11-18T12:43:11;3.40;;;1.23;;
4452;SDS011;2239;48.152;11.584;2023-11-18T12:45:43;1.33;;;0.90;;
4452;SDS011;2239;48.152;11.584;2023-11-18T12:48:32;1.43;;;0.90;;
4452;SDS011;2239;48.152;11.584;2023-11-18T12:51:01;1.30;;;0.80;;
4452;SDS011;2239;48.152;11.584;2023-11-18T12:53:27;1.50;;;0.93;;
4452;SDS011;2239;48.152;11.584;2023-11-18T12:55:53;1.43;;;1.20;;
4452;SDS011;2239;48.152;11.584;2023-11-18T12:58:20;2.03;;;1.00;;
4452;SDS011;2239;48.152;11.584;2023-11-18T13:00:48;1.90;;;1.33;;
4452;SDS011;2239;48.152;11.584;2023-11-18T13:03:14;1.27;;;1.00;;
4452;SDS011;2239;48.152;11.584;2023-11-18T13:05:40;1.10;;;0.80;;
4452;SDS011;2239;48.152;11.584;2023-11-18T13:08:08;1.70;;;1.10;;
4452;SDS011;2239;48.152;11.584;2023-11-18T13:10:34;1.43;;;1.13;;
4452;SDS011;2239;48.152;11.584;2023-11-18T13:13:01;1.67;;;0.90;;
4452;SDS011;2239;48.152;11.584;2023-11-18T13:15:27;2.60;;;1.10;;
4452;SDS011;2239;48.152;11.584;2023-11-18T13:17:58;2.43;;;1.10;;
4452;SDS011;2239;48.152;11.584;2023-11-18T13:20:24;1.20;;;1.03;;
4452;SDS011;2239;48.152;11.584;2023-11-18T13:22:51;1.70;;;1.03;;
4452;SDS011;2239;48.152;11.584;2023-11-18T13:25:17;2.17;;;1.07;;
4452;SDS011;2239;48.152;11.584;2023-11-18T13:27:43;1.53;;;1.00;;
4452;SDS011;2239;48.152;11.584;2023-11-18T13:30:09;1.30;;;1.10;;
4452;SDS011;2239;48.152;11.584;2023-11-18T13:32:41;2.20;;;1.30;;
4452;SDS011;2239;48.152;11.584;2023-11-18T13:35:08;2.37;;;1.20;;
4452;SDS011;2239;48.152;11.584;2023-11-18T13:37:36;2.03;;;1.20;;
4452;SDS011;2239;48.152;11.584;2023-11-18T13:40:01;2.30;;;1.07;;
4452;SDS011;2239;48.152;11.584;2023-11-18T13:42:31;1.57;;;1.10;;
4452;SDS011;2239;48.152;11.584;2023-11-18T13:45:05;1.20;;;0.80;;
4452;SDS011;2239;48.152;11.584;2023-11-18T13:47:34;1.47;;;1.03;;
4452;SDS011;2239;48.152;11.584;2023-11-18T13:50:01;2.57;;;1.10;;
4452;SDS011;2239;48.152;11.584;2023-11-18T13:52:35;2.70;;;1.40;;
4452;SDS011;2239;48.152;11.584;2023-11-18T13:55:03;1.60;;;1.07;;
4452;SDS011;2239;48.152;11.584;2023-11-18T13:57:31;3.20;;;1.20;;
4452;SDS011;2239;48.152;11.584;2023-11-18T13:59:57;3.40;;;1.30;;
4452;SDS011;2239;48.152;11.584;2023-11-18T14:02:24;10.53;;;1.13;;
4452;SDS011;2239;48.152;11.584;2023-11-18T14:04:49;1.90;;;1.00;;
4452;SDS011;2239;48.152;11.584;2023-11-18T14:07:15;1.87;;;1.00;;
4452;SDS011;2239;48.152;11.584;2023-11-18T14:09:43;8.80;;;1.50;;
4452;SDS011;2239;48.152;11.584;2023-11-18T14:12:10;3.60;;;1.20;;
4452;SDS011;2239;48.152;11.584;2023-11-18T14:14:37;1.50;;;0.90;;
4452;SDS011;2239;48.152;11.584;2023-11-18T14:17:04;1.30;;;0.90;;
4452;SDS011;2239;48.152;11.584;2023-11-18T14:19:35;6.30;;;0.83;;
4452;SDS011;2239;48.152;11.584;2023-11-18T14:22:01;1.27;;;1.10;;
4452;SDS011;2239;48.152;11.584;2023-11-18T14:24:31;1.43;;;1.00;;
4452;SDS011;2239;48.152;11.584;2023-11-18T14:26:58;1.80;;;1.37;;
4452;SDS011;2239;48.152;11.584;2023-11-18T14:29:23;1.43;;;1.10;;
4452;SDS011;2239;48.152;11.584;2023-11-18T14:31:49;1.60;;;1.07;;
4452;SDS011;2239;48.152;11.584;2023-11-18T14:34:15;1.57;;;1.07;;
4452;SDS011;2239;48.152;11.584;2023-11-18T14:36:40;2.83;;;1.23;;
4452;SDS011;2239;48.152;11.584;2023-11-18T14:39:08;2.23;;;1.37;;
4452;SDS011;2239;48.152;11.584;2023-11-18T14:41:35;1.90;;;1.10;;
4452;SDS011;2239;48.152;11.584;2023-11-18T14:44:02;2.70;;;1.10;;
4452;SDS011;2239;48.152;11.584;2023-11-18T14:46:29;3.10;;;1.00;;
4452;SDS011;2239;48.152;11.584;2023-11-18T14:48:56;1.10;;;0.90;;
4452;SDS011;2239;48.152;11.584;2023-11-18T14:51:22;2.00;;;1.17;;
4452;SDS011;2239;48.152;11.584;2023-11-18T14:53:48;2.30;;;0.90;;
4452;SDS011;2239;48.152;11.584;2023-11-18T14:56:13;1.60;;;1.10;;
4452;SDS011;2239;48.152;11.584;2023-11-18T14:58:39;2.43;;;1.10;;
4452;SDS011;2239;48.152;11.584;2023-11-18T15:01:05;1.30;;;1.17;;
4452;SDS011;2239;48.152;11.584;2023-11-18T15:03:33;2.00;;;1.23;;
4452;SDS011;2239;48.152;11.584;2023-11-18T15:06:00;1.50;;;1.37;;
4452;SDS011;2239;48.152;11.584;2023-11-18T15:08:25;2.37;;;1.37;;
4452;SDS011;2239;48.152;11.584;2023-11-18T15:10:51;4.50;;;2.60;;
4452;SDS011;2239;48.152;11.584;2023-11-18T15:13:16;3.77;;;2.10;;
4452;SDS011;2239;48.152;11.584;2023-11-18T15:15:43;2.77;;;1.30;;
4452;SDS011;2239;48.152;11.584;2023-11-18T15:18:12;2.17;;;1.60;;
4452;SDS011;2239;48.152;11.584;2023-11-18T15:20:45;2.70;;;1.13;;
4452;SDS011;2239;48.152;11.584;2023-11-18T15:23:12;3.67;;;1.00;;
4452;SDS011;2239;48.152;11.584;2023-11-18T15:25:38;1.13;;;1.03;;
4452;SDS011;2239;48.152;11.584;2023-11-18T15:28:05;3.70;;;1.33;;
4452;SDS011;2239;48.152;11.584;2023-11-18T15:30:35;1.17;;;1.00;;